createdAt,value
2018-08-19T00:00:45.794Z,57.92
2018-08-19T00:03:14.376Z,58.03
2018-08-19T00:05:43.126Z,58.13
2018-08-19T00:08:11.799Z,58.19
2018-08-19T00:11:11.301Z,57.82
2018-08-19T00:13:40.314Z,58.43
2018-08-19T00:16:10.107Z,58.34
2018-08-19T00:18:38.821Z,58.78
2018-08-19T00:21:10.864Z,58.88
2018-08-19T00:23:44.731Z,59.59
2018-08-19T00:26:15.304Z,59.77
2018-08-19T00:28:43.965Z,59.75
2018-08-19T00:31:12.637Z,59.88
2018-08-19T00:33:41.221Z,60.06
2018-08-19T00:36:26.038Z,60.41
2018-08-19T00:38:55.367Z,60.40
2018-08-19T00:41:24.044Z,60.92
2018-08-19T00:43:52.684Z,61.46
2018-08-19T00:46:33.248Z,61.48
2018-08-19T00:49:02.336Z,61.53
2018-08-19T00:51:30.957Z,61.64
2018-08-19T00:53:59.562Z,62.40
2018-08-19T00:56:28.163Z,62.32
2018-08-19T00:58:56.877Z,63.04
2018-08-19T01:01:34.750Z,62.53
2018-08-19T01:04:06.505Z,62.38
2018-08-19T01:06:40.642Z,62.92
2018-08-19T01:09:10.082Z,62.63
2018-08-19T01:11:40.620Z,61.98
2018-08-19T01:14:12.025Z,62.34
2018-08-19T01:16:40.850Z,62.19
2018-08-19T01:19:10.014Z,61.66
2018-08-19T01:21:38.729Z,61.17
2018-08-19T01:24:08.968Z,61.79
2018-08-19T01:26:38.804Z,61.58
2018-08-19T01:29:08.561Z,62.08
2018-08-19T01:31:37.251Z,61.81
2018-08-19T01:34:08.321Z,62.08
2018-08-19T01:36:37.050Z,61.36
2018-08-19T01:39:10.606Z,61.79
2018-08-19T01:41:40.445Z,62.01
2018-08-19T01:44:10.335Z,61.49
2018-08-19T01:46:54.473Z,61.49
2018-08-19T01:49:23.055Z,61.73
2018-08-19T01:51:51.645Z,60.97
2018-08-19T01:54:22.280Z,60.72
2018-08-19T01:56:55.196Z,60.62
2018-08-19T01:59:25.788Z,60.78
2018-08-19T02:02:01.871Z,60.98
2018-08-19T02:04:31.254Z,61.69
2018-08-19T02:07:00.178Z,61.33
2018-08-19T02:09:28.797Z,61.67
2018-08-19T02:11:58.626Z,61.46
2018-08-19T02:14:27.310Z,61.86
2018-08-19T02:16:56.652Z,61.21
2018-08-19T02:19:25.321Z,61.90
2018-08-19T02:21:54.238Z,61.73
2018-08-19T02:24:22.904Z,61.55
2018-08-19T02:26:51.493Z,61.28
2018-08-19T02:29:32.285Z,61.44
2018-08-19T02:32:02.031Z,62.08
2018-08-19T02:34:32.549Z,61.63
2018-08-19T02:37:07.913Z,61.61
2018-08-19T02:39:39.345Z,61.96
2018-08-19T02:42:25.033Z,62.43
2018-08-19T02:44:55.917Z,62.37
2018-08-19T02:47:24.477Z,63.00
2018-08-19T02:49:53.293Z,63.09
2018-08-19T02:52:27.343Z,62.83
2018-08-19T02:54:57.086Z,62.95
2018-08-19T02:57:26.196Z,63.48
2018-08-19T02:59:54.827Z,63.64
2018-08-19T03:02:29.625Z,64.15
2018-08-19T03:04:59.023Z,64.61
2018-08-19T03:07:28.751Z,64.53
2018-08-19T03:10:09.830Z,65.67
2018-08-19T03:12:38.692Z,66.28
2018-08-19T03:15:08.675Z,65.89
2018-08-19T03:17:37.443Z,66.64
2018-08-19T03:20:08.855Z,67.21
2018-08-19T03:22:37.442Z,67.82
2018-08-19T03:25:06.658Z,67.99
2018-08-19T03:27:35.273Z,68.15
2018-08-19T03:30:05.778Z,68.46
2018-08-19T03:32:34.385Z,68.63
2018-08-19T03:35:13.038Z,67.53
2018-08-19T03:37:41.663Z,66.78
2018-08-19T03:40:10.281Z,65.77
2018-08-19T03:42:38.888Z,64.93
2018-08-19T03:45:12.796Z,64.90
2018-08-19T03:47:41.416Z,64.18
2018-08-19T03:50:15.060Z,62.75
2018-08-19T03:52:44.603Z,62.33
2018-08-19T03:55:18.489Z,62.16
2018-08-19T03:57:47.469Z,62.40
2018-08-19T04:00:17.598Z,62.08
2018-08-19T04:02:46.213Z,62.08
2018-08-19T04:05:14.824Z,61.86
2018-08-19T04:07:43.903Z,61.68
2018-08-19T04:10:12.917Z,61.17
2018-08-19T04:12:41.502Z,61.68
2018-08-19T04:15:10.815Z,61.30
2018-08-19T04:17:39.427Z,61.46
2018-08-19T04:20:08.025Z,61.78
2018-08-19T04:22:36.578Z,61.69
2018-08-19T04:25:05.276Z,61.66
2018-08-19T04:27:33.837Z,61.49
2018-08-19T04:30:02.407Z,61.12
2018-08-19T04:32:32.381Z,61.28
2018-08-19T04:35:02.037Z,61.02
2018-08-19T04:37:30.691Z,61.41
2018-08-19T04:40:00.261Z,61.00
2018-08-19T04:42:28.917Z,61.54
2018-08-19T04:44:57.514Z,61.41
2018-08-19T04:47:32.030Z,60.94
2018-08-19T04:50:00.626Z,61.42
2018-08-19T04:52:29.300Z,61.27
2018-08-19T04:54:58.233Z,60.73
2018-08-19T04:57:26.864Z,60.66
2018-08-19T04:59:55.461Z,60.59
2018-08-19T05:02:24.573Z,61.96
2018-08-19T05:04:53.107Z,62.53
2018-08-19T05:07:21.669Z,62.62
2018-08-19T05:09:50.245Z,62.99
2018-08-19T05:12:18.809Z,63.02
2018-08-19T05:14:47.446Z,63.52
2018-08-19T05:17:16.030Z,63.42
2018-08-19T05:19:44.609Z,64.10
2018-08-19T05:22:14.073Z,63.40
2018-08-19T05:24:43.580Z,62.99
2018-08-19T05:27:12.175Z,62.68
2018-08-19T05:29:40.735Z,62.00
2018-08-19T05:32:19.363Z,62.07
2018-08-19T05:34:55.007Z,62.03
2018-08-19T05:37:23.574Z,61.57
2018-08-19T05:39:57.454Z,61.21
2018-08-19T05:42:26.488Z,61.68
2018-08-19T05:44:55.189Z,61.93
2018-08-19T05:47:23.786Z,61.19
2018-08-19T05:49:52.393Z,61.33
2018-08-19T05:52:22.022Z,60.82
2018-08-19T05:54:55.981Z,60.01
2018-08-19T05:57:24.850Z,60.22
2018-08-19T05:59:54.455Z,59.95
2018-08-19T06:02:31.865Z,59.26
2018-08-19T06:05:01.539Z,58.83
2018-08-19T06:07:30.365Z,58.02
2018-08-19T06:09:59.134Z,57.81
2018-08-19T06:12:27.784Z,57.19
2018-08-19T06:14:58.971Z,56.90
2018-08-19T06:17:27.593Z,56.13
2018-08-19T06:19:56.240Z,55.42
2018-08-19T06:22:32.032Z,53.81
2018-08-19T06:25:00.636Z,52.69
2018-08-19T06:27:35.301Z,52.43
2018-08-19T06:30:04.012Z,50.57
2018-08-19T06:32:33.271Z,49.99
2018-08-19T06:35:02.119Z,49.09
2018-08-19T06:37:30.601Z,48.38
2018-08-19T06:39:59.182Z,47.72
2018-08-19T06:42:27.813Z,47.33
2018-08-19T06:44:56.482Z,47.90
2018-08-19T06:47:25.274Z,47.39
2018-08-19T06:49:56.279Z,49.53
2018-08-19T06:52:25.512Z,49.13
2018-08-19T06:54:54.532Z,48.96
2018-08-19T06:57:23.279Z,48.46
2018-08-19T06:59:51.949Z,48.65
2018-08-19T07:02:22.210Z,48.31
2018-08-19T07:04:50.887Z,47.87
2018-08-19T07:07:20.273Z,48.22
2018-08-19T07:09:48.978Z,48.42
2018-08-19T07:12:19.578Z,47.85
2018-08-19T07:14:53.890Z,48.02
2018-08-19T07:17:23.646Z,48.05
2018-08-19T07:19:52.596Z,47.86
2018-08-19T07:22:22.163Z,47.06
2018-08-19T07:24:51.664Z,46.96
2018-08-19T07:27:20.563Z,46.77
2018-08-19T07:29:50.148Z,46.63
2018-08-19T07:32:18.762Z,46.02
2018-08-19T07:34:47.350Z,45.52
2018-08-19T07:37:16.004Z,45.04
2018-08-19T07:39:49.671Z,45.38
2018-08-19T07:42:18.282Z,44.87
2018-08-19T07:44:46.934Z,43.83
2018-08-19T07:47:16.421Z,43.87
2018-08-19T07:49:45.017Z,44.23
2018-08-19T07:52:13.702Z,44.42
2018-08-19T07:54:42.351Z,44.13
2018-08-19T07:57:16.151Z,44.29
2018-08-19T07:59:47.193Z,43.58
2018-08-19T08:02:15.817Z,43.20
2018-08-19T08:04:45.344Z,43.58
2018-08-19T08:07:14.776Z,43.15
2018-08-19T08:09:43.740Z,43.17
2018-08-19T08:12:13.607Z,42.69
2018-08-19T08:14:47.380Z,41.97
2018-08-19T08:17:16.046Z,41.42
2018-08-19T08:19:51.835Z,41.30
2018-08-19T08:22:20.690Z,40.73
2018-08-19T08:24:49.308Z,40.22
2018-08-19T08:27:17.974Z,38.92
2018-08-19T08:29:46.580Z,38.68
2018-08-19T08:32:15.206Z,38.99
2018-08-19T08:34:43.859Z,38.17
2018-08-19T08:37:13.116Z,37.61
2018-08-19T08:39:41.744Z,37.68
2018-08-19T08:42:10.334Z,38.24
2018-08-19T08:44:39.190Z,37.64
2018-08-19T08:47:10.401Z,37.76
2018-08-19T08:49:44.141Z,36.93
2018-08-19T08:52:17.874Z,36.18
2018-08-19T08:54:53.786Z,36.23
2018-08-19T08:57:23.538Z,34.43
2018-08-19T08:59:52.609Z,35.25
2018-08-19T09:02:21.667Z,35.84
2018-08-19T09:04:51.227Z,35.82
2018-08-19T09:07:20.218Z,36.03
2018-08-19T09:09:49.203Z,35.81
2018-08-19T09:12:19.095Z,37.15
2018-08-19T09:14:47.714Z,35.55
2018-08-19T09:17:16.374Z,35.01
2018-08-19T09:19:45.021Z,36.12
2018-08-19T09:22:14.346Z,35.71
2018-08-19T09:24:42.982Z,35.40
2018-08-19T09:27:11.604Z,36.22
2018-08-19T09:29:40.238Z,36.66
2018-08-19T09:32:08.956Z,36.06
2018-08-19T09:34:37.534Z,36.51
2018-08-19T09:37:06.249Z,36.63
2018-08-19T09:39:35.171Z,37.83
2018-08-19T09:42:12.693Z,37.42
2018-08-19T09:44:42.449Z,36.75
2018-08-19T09:47:11.220Z,36.42
2018-08-19T09:49:39.960Z,37.08
2018-08-19T09:52:08.655Z,36.86
2018-08-19T09:54:38.269Z,36.73
2018-08-19T09:57:08.032Z,36.65
2018-08-19T09:59:36.602Z,36.28
2018-08-19T10:02:06.464Z,35.85
2018-08-19T10:04:35.137Z,35.41
2018-08-19T10:07:09.149Z,35.43
2018-08-19T10:09:37.749Z,35.40
2018-08-19T10:12:06.797Z,35.23
2018-08-19T10:14:35.527Z,35.43
2018-08-19T10:17:04.353Z,35.47
2018-08-19T10:19:33.122Z,35.35
2018-08-19T10:22:01.814Z,34.53
2018-08-19T10:24:32.088Z,33.86
2018-08-19T10:27:00.995Z,34.28
2018-08-19T10:29:29.645Z,33.85
2018-08-19T10:32:00.744Z,34.37
2018-08-19T10:34:32.771Z,33.50
2018-08-19T10:37:02.080Z,32.77
2018-08-19T10:39:30.790Z,33.38
2018-08-19T10:42:19.133Z,33.78
2018-08-19T10:44:51.536Z,33.13
2018-08-19T10:47:21.260Z,32.57
2018-08-19T10:49:56.374Z,32.31
2018-08-19T10:52:29.402Z,32.69
2018-08-19T10:54:59.592Z,31.84
2018-08-19T10:57:28.268Z,31.53
2018-08-19T10:59:59.180Z,30.55
2018-08-19T11:02:27.822Z,29.79
2018-08-19T11:04:58.658Z,28.83
2018-08-19T11:07:27.306Z,29.35
2018-08-19T11:10:20.846Z,28.96
2018-08-19T11:12:52.855Z,29.19
2018-08-19T11:15:45.104Z,28.88
2018-08-19T11:18:36.837Z,29.28
2018-08-19T11:21:08.396Z,28.70
2018-08-19T11:23:38.012Z,29.39
2018-08-19T11:26:07.398Z,28.20
2018-08-19T11:28:41.137Z,28.19
2018-08-19T11:31:18.908Z,27.61
2018-08-19T11:33:47.728Z,28.42
2018-08-19T11:36:16.422Z,27.90
2018-08-19T11:38:50.493Z,27.51
2018-08-19T11:41:19.726Z,27.62
2018-08-19T11:43:49.523Z,27.72
2018-08-19T11:46:18.218Z,26.95
2018-08-19T11:48:50.299Z,26.88
2018-08-19T11:51:19.396Z,26.83
2018-08-19T11:53:48.029Z,26.60
2018-08-19T11:56:16.724Z,26.16
2018-08-19T11:58:47.649Z,26.70
2018-08-19T12:01:20.505Z,26.88
2018-08-19T12:04:01.229Z,27.18
2018-08-19T12:06:31.060Z,26.15
2018-08-19T12:09:01.127Z,25.11
2018-08-19T12:11:31.411Z,25.54
2018-08-19T12:14:02.414Z,25.55
2018-08-19T12:16:31.211Z,25.16
2018-08-19T12:19:06.077Z,24.58
2018-08-19T12:21:39.128Z,25.00
2018-08-19T12:24:17.749Z,25.49
2018-08-19T12:26:46.465Z,25.65
2018-08-19T12:29:15.168Z,24.97
2018-08-19T12:31:43.801Z,24.93
2018-08-19T12:34:12.681Z,24.67
2018-08-19T12:36:41.582Z,24.69
2018-08-19T12:39:10.675Z,23.63
2018-08-19T12:41:44.322Z,22.55
2018-08-19T12:44:12.917Z,22.12
2018-08-19T12:46:48.449Z,21.82
2018-08-19T12:49:17.413Z,21.76
2018-08-19T12:51:46.090Z,22.09
2018-08-19T12:54:14.848Z,22.09
2018-08-19T12:56:43.478Z,21.19
2018-08-19T12:59:12.201Z,21.09
2018-08-19T13:01:41.989Z,20.96
2018-08-19T13:04:10.701Z,19.75
2018-08-19T13:06:44.536Z,20.02
2018-08-19T13:09:13.405Z,19.47
2018-08-19T13:11:42.349Z,18.95
2018-08-19T13:14:11.030Z,18.94
2018-08-19T13:16:39.654Z,19.55
2018-08-19T13:19:08.379Z,18.46
2018-08-19T13:21:37.094Z,18.66
2018-08-19T13:24:05.981Z,18.69
2018-08-19T13:26:34.657Z,18.49
2018-08-19T13:29:03.392Z,17.54
2018-08-19T13:31:34.512Z,17.15
2018-08-19T13:34:04.215Z,17.19
2018-08-19T13:36:33.231Z,17.16
2018-08-19T13:39:01.909Z,16.75
2018-08-19T13:41:30.577Z,16.54
2018-08-19T13:43:59.373Z,17.07
2018-08-19T13:46:28.061Z,16.68
2018-08-19T13:48:56.836Z,16.88
2018-08-19T13:51:25.502Z,16.97
2018-08-19T13:53:54.417Z,17.84
2018-08-19T13:56:23.206Z,17.98
2018-08-19T13:58:51.930Z,18.06
2018-08-19T14:01:20.530Z,17.78
2018-08-19T14:03:49.183Z,17.58
2018-08-19T14:06:17.808Z,17.24
2018-08-19T14:08:46.415Z,16.17
2018-08-19T14:11:15.928Z,16.10
2018-08-19T14:13:44.640Z,16.32
2018-08-19T14:16:13.395Z,16.74
2018-08-19T14:18:42.368Z,15.89
2018-08-19T14:21:11.234Z,15.71
2018-08-19T14:23:39.949Z,15.28
2018-08-19T14:26:08.803Z,13.54
2018-08-19T14:28:37.476Z,14.48
2018-08-19T14:31:06.392Z,13.67
2018-08-19T14:33:35.470Z,13.81
2018-08-19T14:36:04.202Z,13.37
2018-08-19T14:38:32.861Z,12.56
2018-08-19T14:41:02.393Z,12.33
2018-08-19T14:43:31.045Z,12.46
2018-08-19T14:45:59.856Z,11.69
2018-08-19T14:48:28.642Z,11.05
2018-08-19T14:50:57.301Z,11.37
2018-08-19T14:53:25.950Z,11.68
2018-08-19T14:56:06.525Z,11.36
2018-08-19T14:58:35.233Z,11.26
2018-08-19T15:01:03.921Z,10.69
2018-08-19T15:03:32.634Z,10.62
2018-08-19T15:06:08.213Z,10.52
2018-08-19T15:08:36.928Z,10.88
2018-08-19T15:11:05.874Z,10.84
2018-08-19T15:13:34.849Z,10.67
2018-08-19T15:16:03.576Z,10.91
2018-08-19T15:18:32.200Z,10.51
2018-08-19T15:21:00.857Z,10.16
2018-08-19T15:23:29.486Z,10.29
2018-08-19T15:25:58.123Z,10.71
2018-08-19T15:28:27.726Z,9.89
2018-08-19T15:30:57.713Z,9.33
2018-08-19T15:33:26.417Z,10.29
2018-08-19T15:35:55.129Z,9.80
2018-08-19T15:38:23.805Z,9.80
2018-08-19T15:40:52.481Z,9.75
2018-08-19T15:43:21.221Z,9.85
2018-08-19T15:45:49.928Z,9.98
2018-08-19T15:48:18.646Z,9.81
2018-08-19T15:50:47.347Z,9.73
2018-08-19T15:53:18.311Z,9.63
2018-08-19T15:55:47.193Z,9.81
2018-08-19T15:58:15.946Z,9.34
2018-08-19T16:00:44.607Z,9.33
2018-08-19T16:03:13.498Z,10.21
2018-08-19T16:05:42.200Z,9.43
2018-08-19T16:08:10.972Z,9.77
2018-08-19T16:10:39.664Z,10.25
2018-08-19T16:13:10.297Z,10.70
2018-08-19T16:15:39.123Z,10.00
2018-08-19T16:18:08.386Z,9.16
2018-08-19T16:20:37.188Z,9.50
2018-08-19T16:23:05.885Z,10.03
2018-08-19T16:25:34.587Z,10.10
2018-08-19T16:28:03.429Z,10.00
2018-08-19T16:30:32.801Z,10.20
2018-08-19T16:33:01.476Z,9.90
2018-08-19T16:35:30.216Z,10.18
2018-08-19T16:40:32.963Z,10.97
2018-08-19T16:43:01.639Z,11.35
2018-08-19T16:45:30.471Z,10.90
2018-08-19T16:47:59.220Z,11.59
2018-08-19T16:50:28.075Z,11.59
2018-08-19T16:52:56.601Z,11.82
2018-08-19T16:55:25.372Z,12.23
2018-08-19T16:57:58.594Z,12.30
2018-08-19T17:00:27.639Z,12.73
2018-08-19T17:02:56.476Z,13.46
2018-08-19T17:05:36.211Z,14.37
2018-08-19T17:08:05.116Z,13.65
2018-08-19T17:10:33.767Z,14.51
2018-08-19T17:13:02.421Z,14.47
2018-08-19T17:15:31.082Z,14.39
2018-08-19T17:17:59.840Z,14.29
2018-08-19T17:20:28.616Z,15.03
2018-08-19T17:22:57.505Z,15.31
2018-08-19T17:25:26.154Z,15.72
2018-08-19T17:27:54.858Z,15.91
2018-08-19T17:30:23.486Z,17.14
2018-08-19T17:32:57.611Z,18.78
2018-08-19T17:35:26.236Z,19.49
2018-08-19T17:37:54.967Z,20.01
2018-08-19T17:40:23.773Z,20.65
2018-08-19T17:42:52.435Z,22.04
2018-08-19T17:45:21.145Z,22.74
2018-08-19T17:47:49.734Z,23.21
2018-08-19T17:50:24.613Z,24.14
2018-08-19T17:52:53.737Z,24.66
2018-08-19T17:55:22.926Z,25.25
2018-08-19T17:57:51.597Z,26.06
2018-08-19T18:00:20.565Z,26.70
2018-08-19T18:02:49.482Z,27.69
2018-08-19T18:05:18.355Z,28.58
2018-08-19T18:07:51.753Z,28.75
2018-08-19T18:10:25.029Z,28.01
2018-08-19T18:12:53.753Z,28.38
2018-08-19T18:15:24.007Z,29.39
2018-08-19T18:18:04.069Z,30.12
2018-08-19T18:20:36.316Z,30.21
2018-08-19T18:23:07.777Z,30.47
2018-08-19T18:25:36.447Z,30.35
2018-08-19T18:28:11.207Z,30.90
2018-08-19T18:30:39.885Z,31.30
2018-08-19T18:33:08.665Z,30.82
2018-08-19T18:35:37.365Z,31.00
2018-08-19T18:38:10.575Z,31.15
2018-08-19T18:40:39.418Z,31.27
2018-08-19T18:43:08.106Z,31.17
2018-08-19T18:45:36.806Z,31.30
2018-08-19T18:48:06.628Z,32.19
2018-08-19T18:50:35.309Z,31.15
2018-08-19T18:53:04.278Z,32.07
2018-08-19T18:55:33.094Z,32.02
2018-08-19T18:58:01.863Z,32.43
2018-08-19T19:00:30.567Z,32.84
2018-08-19T19:03:00.593Z,33.20
2018-08-19T19:05:40.243Z,33.16
2018-08-19T19:08:14.329Z,32.58
2018-08-19T19:10:55.354Z,32.73
2018-08-19T19:13:25.093Z,33.27
2018-08-19T19:15:53.929Z,33.13
2018-08-19T19:18:22.772Z,33.36
2018-08-19T19:20:56.553Z,33.91
2018-08-19T19:23:30.540Z,34.28
2018-08-19T19:26:00.256Z,34.83
2018-08-19T19:28:29.580Z,34.97
2018-08-19T19:31:03.507Z,35.24
2018-08-19T19:33:32.553Z,35.31
2018-08-19T19:36:09.568Z,36.00
2018-08-19T19:38:59.548Z,36.13
2018-08-19T19:41:31.427Z,36.27
2018-08-19T19:44:05.440Z,36.44
2018-08-19T19:46:34.401Z,36.43
2018-08-19T19:49:03.225Z,37.08
2018-08-19T19:51:31.961Z,37.03
2018-08-19T19:54:00.650Z,37.44
2018-08-19T19:56:29.289Z,37.43
2018-08-19T19:58:58.007Z,38.21
2018-08-19T20:01:26.819Z,37.82
2018-08-19T20:03:56.354Z,38.08
2018-08-19T20:06:25.514Z,38.25
2018-08-19T20:08:54.670Z,38.37
2018-08-19T20:11:27.417Z,38.89
2018-08-19T20:14:00.832Z,39.46
2018-08-19T20:16:29.706Z,39.50
2018-08-19T20:18:58.430Z,39.76
2018-08-19T20:21:28.403Z,40.30
2018-08-19T20:23:58.229Z,40.50
2018-08-19T20:26:29.319Z,40.44
2018-08-19T20:28:59.291Z,40.49
2018-08-19T20:31:28.111Z,40.71
2018-08-19T20:33:58.011Z,41.26
2018-08-19T20:36:26.889Z,41.65
2018-08-19T20:38:55.590Z,41.45
2018-08-19T20:41:24.338Z,42.14
2018-08-19T20:43:52.965Z,42.18
2018-08-19T20:46:21.849Z,42.84
2018-08-19T20:48:50.721Z,42.46
2018-08-19T20:51:19.663Z,42.39
2018-08-19T20:53:48.690Z,42.47
2018-08-19T20:56:17.383Z,43.22
2018-08-19T20:58:46.189Z,42.95
2018-08-19T21:01:20.179Z,43.75
2018-08-19T21:03:48.908Z,43.62
2018-08-19T21:06:17.635Z,44.05
2018-08-19T21:08:46.370Z,44.59
2018-08-19T21:11:15.122Z,44.06
2018-08-19T21:13:43.805Z,44.84
2018-08-19T21:16:12.855Z,44.67
2018-08-19T21:18:41.675Z,45.15
2018-08-19T21:21:11.671Z,45.16
2018-08-19T21:23:40.409Z,45.55
2018-08-19T21:26:09.199Z,45.92
2018-08-19T21:28:37.899Z,46.18
2018-08-19T21:31:06.678Z,46.41
2018-08-19T21:33:35.485Z,46.38
2018-08-19T21:36:04.185Z,46.68
2018-08-19T21:38:33.050Z,46.56
2018-08-19T21:41:01.783Z,46.23
2018-08-19T21:43:31.522Z,46.35
2018-08-19T21:46:01.174Z,47.04
2018-08-19T21:48:29.826Z,46.90
2018-08-19T21:50:58.487Z,47.60
2018-08-19T21:53:27.196Z,47.66
2018-08-19T21:55:55.886Z,47.19
2018-08-19T21:58:25.201Z,47.24
2018-08-19T22:00:55.033Z,47.75
2018-08-19T22:03:28.852Z,47.79
2018-08-19T22:05:57.605Z,48.09
2018-08-19T22:08:26.332Z,47.65
2018-08-19T22:10:55.119Z,48.15
2018-08-19T22:13:23.857Z,48.52
2018-08-19T22:15:53.257Z,48.17
2018-08-19T22:18:23.338Z,48.62
2018-08-19T22:21:06.602Z,48.73
2018-08-19T22:23:40.556Z,48.44
2018-08-19T22:26:10.543Z,48.51
2018-08-19T22:28:39.808Z,48.90
2018-08-19T22:31:20.210Z,49.80
2018-08-19T22:33:52.186Z,49.62
2018-08-19T22:36:21.986Z,49.69
2018-08-19T22:38:52.062Z,50.03
2018-08-19T22:41:24.871Z,50.15
2018-08-19T22:43:54.622Z,50.10
2018-08-19T22:46:23.566Z,50.17
2018-08-19T22:48:52.897Z,50.46
2018-08-19T22:51:21.659Z,51.00
2018-08-19T22:53:53.657Z,50.66
2018-08-19T22:56:22.736Z,50.98
2018-08-19T22:58:51.411Z,51.49
2018-08-19T23:01:20.255Z,50.77
2018-08-19T23:03:50.027Z,51.18
2018-08-19T23:06:18.683Z,50.66
2018-08-19T23:08:47.341Z,50.62
2018-08-19T23:11:15.993Z,51.08
2018-08-19T23:13:55.599Z,51.06
2018-08-19T23:16:24.308Z,51.39
2018-08-19T23:18:52.892Z,51.90
2018-08-19T23:21:21.564Z,51.36
2018-08-19T23:23:50.207Z,51.49
2018-08-19T23:26:18.826Z,51.78
2018-08-19T23:28:47.447Z,51.98
2018-08-19T23:31:16.113Z,51.38
2018-08-19T23:33:44.785Z,51.70
2018-08-19T23:36:13.418Z,51.42
2018-08-19T23:38:42.058Z,51.72
2018-08-19T23:41:10.691Z,51.34
2018-08-19T23:43:39.334Z,51.56
2018-08-19T23:46:08.026Z,51.73
2018-08-19T23:48:41.269Z,51.87
2018-08-19T23:51:12.064Z,51.78
2018-08-19T23:53:40.722Z,51.98
2018-08-19T23:56:09.435Z,52.52
2018-08-19T23:58:38.238Z,52.22
